Time;durP1;ratioP1;P1;durP2;ratioP2;P2;SDS_P1;SDS_P2;PMS_P1;PMS_P2;Temp;Humidity;BMP_temperature;BMP_pressure;BME280_temperature;BME280_humidity;BME280_pressure;Samples;Min_cycle;Max_cycle;Signal;HPM_P1;HPM_P2
2022/09/24 00:01:55;;;;;;;;;;;16.60;57.00;;;12.37;89.59;95338.22;4946127;28;19911;-47
2022/09/24 00:04:26;;;;;;;;;;;16.60;57.10;;;12.34;89.80;95334.22;4945709;28;19914;-47
2022/09/24 00:06:52;;;;;;;;;;;16.60;57.10;;;12.36;89.88;95329.41;4963805;28;19917;-48
2022/09/24 00:09:21;;;;;;;;;;;16.60;57.20;;;12.42;89.75;95330.16;4955298;28;19920;-45
2022/09/24 00:11:53;;;;;;;;;;;16.60;57.20;;;12.45;89.68;95326.94;4955194;28;19914;-49
2022/09/24 00:14:21;;;;;;;;;;;16.60;57.20;;;12.45;90.15;95325.06;4963530;28;19921;-49
2022/09/24 00:16:49;;;;;;;;;;;16.60;57.30;;;12.47;90.06;95325.56;4995075;28;26628;-48
2022/09/24 00:19:15;;;;;;;;;;;16.70;57.40;;;12.54;89.73;95314.56;4997377;28;19913;-50
2022/09/24 00:21:43;;;;;;;;;;;16.70;57.40;;;12.58;89.59;95315.56;4978150;28;19910;-46
2022/09/24 00:27:04;;;;;;;;;;;16.80;57.40;;;12.61;89.34;95314.22;4991104;28;19998;-49
2022/09/24 00:29:34;;;;;;;;;;;16.80;57.40;;;12.63;89.31;95302.16;4958140;28;19917;-48
2022/09/24 00:32:00;;;;;;;;;;;16.70;57.40;;;12.63;89.37;95301.34;4957582;28;19939;-49
2022/09/24 00:37:19;;;;;;;;;;;16.80;57.40;;;12.63;89.59;95296.81;4990969;28;20366;-47
2022/09/24 00:39:45;;;;;;;;;;;16.80;57.40;;;12.62;89.70;95295.22;5008873;28;19909;-47
2022/09/24 00:42:23;;;;;;;;;;;16.80;57.40;;;12.67;89.46;95291.69;5010883;28;19923;-49
2022/09/24 00:44:53;;;;;;;;;;;16.90;57.50;;;12.69;89.20;95298.38;4990337;28;19963;-47
2022/09/24 00:47:31;;;;;;;;;;;16.90;57.50;;;12.72;89.62;95294.31;4957868;28;19910;-48
2022/09/24 00:50:30;;;;;;;;;;;16.90;57.50;;;12.75;89.36;95291.06;4973508;28;19920;-50
2022/09/24 00:53:14;;;;;;;;;;;17.00;57.60;;;12.76;89.22;95294.56;4975772;28;19915;-48
2022/09/24 00:55:51;;;;;;;;;;;17.00;57.60;;;12.78;89.50;95311.88;4954651;28;19940;-48
2022/09/24 00:58:17;;;;;;;;;;;17.00;57.60;;;12.78;89.66;95309.19;4957707;28;19910;-51
2022/09/24 01:00:58;;;;;;;;;;;17.00;57.70;;;12.86;90.11;95318.47;4972523;28;19967;-51
2022/09/24 01:03:30;;;;;;;;;;;17.00;57.80;;;12.93;89.36;95322.38;4990885;28;20007;-48
2022/09/24 01:05:56;;;;;;;;;;;17.10;57.90;;;12.96;89.79;95321.03;4973838;28;19924;-52
2022/09/24 01:08:24;;;;;;;;;;;17.00;57.80;;;13.01;89.65;95328.22;4956655;28;19916;-50
2022/09/24 01:11:17;;;;;;;;;;;17.10;57.90;;;13.03;89.56;95336.72;4973664;28;19924;-51
2022/09/24 01:14:18;;;;;;;;;;;17.10;58.00;;;13.02;89.48;95325.25;4992938;28;20093;-50
2022/09/24 01:17:40;;;;;;;;;;;17.10;58.00;;;13.02;89.41;95316.44;4964656;28;20441;-49
2022/09/24 01:20:44;;;;;;;;;;;17.10;58.00;;;13.03;89.58;95318.78;4993851;28;20000;-51
2022/09/24 01:23:37;;;;;;;;;;;17.10;58.00;;;12.99;90.00;95315.13;4994704;28;19979;-50
2022/09/24 01:26:31;;;;;;;;;;;17.10;58.10;;;12.99;90.12;95315.13;4995109;28;19956;-44
2022/09/24 01:29:04;;;;;;;;;;;17.10;58.10;;;12.99;90.29;95319.66;4977370;28;20016;-49
2022/09/24 01:31:52;;;;;;;;;;;17.10;58.10;;;12.96;90.58;95326.38;4982083;28;19913;-52
2022/09/24 01:34:29;;;;;;;;;;;17.10;58.20;;;12.92;91.24;95325.38;4962791;28;20296;-48
2022/09/24 01:36:58;;;;;;;;;;;17.10;58.20;;;12.91;92.33;95307.72;4981166;28;19940;-51
2022/09/24 01:39:27;;;;;;;;;;;17.00;58.10;;;12.91;92.51;95297.84;4982787;28;19909;-46
2022/09/24 01:41:55;;;;;;;;;;;17.00;58.20;;;12.83;94.06;95286.97;4977014;28;20431;-48
2022/09/24 01:44:24;;;;;;;;;;;16.90;58.20;;;12.78;95.28;95289.69;4993811;28;19920;-50
2022/09/24 01:46:51;;;;;;;;;;;16.90;58.40;;;12.77;95.08;95290.78;4977513;28;19917;-51
2022/09/24 01:49:20;;;;;;;;;;;16.80;58.50;;;12.74;95.42;95281.47;4959478;28;21071;-50
2022/09/24 01:52:00;;;;;;;;;;;16.70;58.60;;;12.71;96.74;95284.69;4973663;28;19983;-46
2022/09/24 01:54:50;;;;;;;;;;;16.70;58.70;;;12.66;96.29;95284.75;4975930;28;19960;-52
2022/09/24 01:57:32;;;;;;;;;;;16.70;58.80;;;12.64;96.18;95285.03;4993569;28;19943;-52
2022/09/24 02:00:16;;;;;;;;;;;16.70;59.00;;;12.63;96.44;95282.66;4994624;28;19909;-53
2022/09/24 02:02:51;;;;;;;;;;;16.70;59.10;;;12.59;96.83;95273.63;4975825;28;20302;-48
2022/09/24 02:05:32;;;;;;;;;;;16.60;59.10;;;12.57;97.43;95283.81;4994618;28;20368;-51
2022/09/24 02:08:20;;;;;;;;;;;16.70;59.20;;;12.55;97.82;95289.41;4976283;28;20300;-53
2022/09/24 02:11:04;;;;;;;;;;;16.60;59.20;;;12.52;98.54;95281.97;4980670;28;20004;-48
2022/09/24 02:13:43;;;;;;;;;;;16.60;59.30;;;12.52;98.24;95276.63;4976993;28;19959;-54
2022/09/24 02:16:15;;;;;;;;;;;16.60;60.00;;;12.50;98.01;95274.25;4973804;28;19964;-48
2022/09/24 02:18:47;;;;;;;;;;;16.60;59.40;;;12.50;97.88;95270.75;4994941;28;19971;-49
2022/09/24 02:21:17;;;;;;;;;;;16.60;59.50;;;12.47;98.71;95269.47;4988234;28;20004;-46
2022/09/24 02:24:31;;;;;;;;;;;16.60;59.50;;;12.45;98.91;95250.25;4983899;28;19913;-47
2022/09/24 02:26:57;;;;;;;;;;;16.60;59.60;;;12.43;99.37;95255.06;4968678;28;20054;-50
2022/09/24 02:29:23;;;;;;;;;;;16.60;59.70;;;12.43;99.09;95249.72;4976930;28;20283;-50
2022/09/24 02:31:55;;;;;;;;;;;16.50;59.70;;;12.42;99.44;95242.81;4983414;28;20019;-48
2022/09/24 02:34:30;;;;;;;;;;;16.50;59.70;;;12.40;99.29;95242.28;4976915;28;19914;-45
2022/09/24 02:37:15;;;;;;;;;;;16.50;59.80;;;12.37;99.63;95240.19;4988659;28;19916;-47
2022/09/24 02:39:42;;;;;;;;;;;16.50;59.80;;;12.37;99.24;95242.84;4976591;28;20032;-48
2022/09/24 02:42:12;;;;;;;;;;;16.50;59.90;;;12.34;99.83;95231.94;4999721;28;19920;-46
2022/09/24 02:44:38;;;;;;;;;;;16.50;59.90;;;12.32;100.00;95226.91;4967548;28;19920;-45
2022/09/24 02:47:06;;;;;;;;;;;16.50;60.00;;;12.30;100.00;95236.28;4977178;28;20019;-44
2022/09/24 02:49:34;;;;;;;;;;;16.50;60.00;;;12.26;100.00;95238.72;4973688;28;19956;-50
2022/09/24 02:52:21;;;;;;;;;;;16.40;60.00;;;12.26;100.00;95233.38;4954279;28;19914;-44
2022/09/24 02:54:53;;;;;;;;;;;16.40;60.10;;;12.22;100.00;95233.16;4987945;28;22110;-50
2022/09/24 02:57:19;;;;;;;;;;;16.40;60.10;;;12.19;100.00;95223.03;4993703;28;20508;-50
2022/09/24 02:59:48;;;;;;;;;;;16.40;60.20;;;12.16;100.00;95220.09;4993819;28;19909;-49
2022/09/24 03:02:14;;;;;;;;;;;16.30;60.20;;;12.11;100.00;95217.50;4975209;28;20318;-47
2022/09/24 03:04:40;;;;;;;;;;;16.30;60.40;;;12.10;100.00;95219.38;4975794;28;19917;-44
2022/09/24 03:07:05;;;;;;;;;;;16.30;60.40;;;12.08;100.00;95216.19;4991972;28;19963;-47
2022/09/24 03:09:31;;;;;;;;;;;16.20;60.50;;;12.06;100.00;95204.19;4992218;28;19917;-46
2022/09/24 03:11:59;;;;;;;;;;;16.20;60.60;;;12.07;100.00;95219.16;4993512;28;20324;-48
2022/09/24 03:14:26;;;;;;;;;;;16.20;60.70;;;12.08;100.00;95216.19;4971325;28;19921;-46
2022/09/24 03:16:51;;;;;;;;;;;16.20;60.80;;;12.08;100.00;95218.88;4976239;28;19910;-44
2022/09/24 03:19:23;;;;;;;;;;;16.20;60.90;;;12.11;100.00;95223.63;4975278;28;19909;-45
2022/09/24 03:21:48;;;;;;;;;;;16.20;61.00;;;12.15;100.00;95224.66;5007724;28;20004;-47
2022/09/24 03:24:17;;;;;;;;;;;16.30;61.20;;;12.15;100.00;95213.19;5000032;28;20016;-46
2022/09/24 03:26:44;;;;;;;;;;;16.30;61.20;;;12.16;100.00;95209.44;4995178;28;20323;-44
2022/09/24 03:29:16;;;;;;;;;;;16.30;61.20;;;12.16;100.00;95222.78;4976209;28;19913;-44
2022/09/24 03:31:41;;;;;;;;;;;16.30;61.20;;;12.17;100.00;95227.84;4981421;28;19925;-44
2022/09/24 03:34:13;;;;;;;;;;;16.30;61.20;;;12.18;100.00;95233.97;4993449;28;20323;-44
2022/09/24 03:36:44;;;;;;;;;;;16.40;61.30;;;12.19;100.00;95228.38;4991099;28;19914;-45
2022/09/24 03:39:19;;;;;;;;;;;16.40;61.40;;;12.20;100.00;95226.50;4968217;28;19910;-44
2022/09/24 03:41:45;;;;;;;;;;;16.40;61.40;;;12.20;100.00;95218.47;5012370;28;19916;-48
2022/09/24 03:44:16;;;;;;;;;;;16.40;61.40;;;12.20;100.00;95219.28;4997133;28;20372;-48
2022/09/24 03:46:42;;;;;;;;;;;16.40;61.40;;;12.20;100.00;95215.81;4992886;28;19937;-50
2022/09/24 03:49:11;;;;;;;;;;;16.40;61.40;;;12.19;100.00;95228.38;4997379;28;20634;-50
2022/09/24 03:51:37;;;;;;;;;;;16.40;61.40;;;12.18;100.00;95229.44;4975313;28;19914;-51
2022/09/24 03:54:05;;;;;;;;;;;16.50;61.50;;;12.19;100.00;95230.22;4992765;28;19916;-44
2022/09/24 03:56:31;;;;;;;;;;;16.40;61.50;;;12.19;100.00;95230.22;5000864;28;20024;-47
2022/09/24 03:58:57;;;;;;;;;;;16.40;61.50;;;12.18;100.00;95223.31;4974972;28;19996;-47
2022/09/24 04:01:22;;;;;;;;;;;16.50;61.60;;;12.20;100.00;95229.97;4992052;28;19916;-49
2022/09/24 04:03:49;;;;;;;;;;;16.40;61.60;;;12.20;100.00;95229.97;4992606;28;19916;-50
2022/09/24 04:06:18;;;;;;;;;;;16.50;61.60;;;12.20;100.00;95229.16;4994435;28;19916;-50
2022/09/24 04:08:44;;;;;;;;;;;16.50;61.70;;;12.19;100.00;95232.88;4996429;28;19980;-51
2022/09/24 04:11:10;;;;;;;;;;;16.50;61.70;;;12.20;100.00;95226.50;4992194;28;20357;-50
2022/09/24 04:13:38;;;;;;;;;;;16.50;61.80;;;12.20;100.00;95221.16;4999174;28;19931;-51
2022/09/24 04:16:04;;;;;;;;;;;16.50;61.80;;;12.21;100.00;95226.19;4955244;28;20002;-52
2022/09/24 04:18:33;;;;;;;;;;;16.50;61.90;;;12.21;100.00;95222.75;4983086;28;19955;-47
2022/09/24 04:21:00;;;;;;;;;;;16.50;61.90;;;12.23;100.00;95233.94;4978009;28;19913;-46
2022/09/24 04:23:33;;;;;;;;;;;16.50;62.00;;;12.21;100.00;95228.88;4968556;28;19921;-46
2022/09/24 04:26:02;;;;;;;;;;;16.50;61.90;;;12.22;100.00;95222.47;4996790;28;19960;-45
2022/09/24 04:28:31;;;;;;;;;;;16.50;62.00;;;12.24;100.00;95225.63;4958523;28;19909;-49
2022/09/24 04:30:58;;;;;;;;;;;16.50;62.20;;;12.24;100.00;95224.84;4988101;28;20356;-46
2022/09/24 04:33:24;;;;;;;;;;;16.50;62.10;;;12.23;100.00;95221.38;4992197;28;20374;-47
2022/09/24 04:35:56;;;;;;;;;;;16.50;62.20;;;12.23;100.00;95221.38;4977018;28;19910;-46
2022/09/24 04:38:31;;;;;;;;;;;16.50;62.20;;;12.25;100.00;95232.59;4993502;28;19948;-44
2022/09/24 04:41:11;;;;;;;;;;;16.50;63.00;;;12.24;100.00;95238.97;4999653;28;19909;-45
2022/09/24 04:43:40;;;;;;;;;;;16.50;62.30;;;12.25;100.00;95239.78;4983733;28;19916;-44
2022/09/24 04:46:07;;;;;;;;;;;16.50;62.40;;;12.26;100.00;95230.72;4974174;28;20280;-44
2022/09/24 04:48:37;;;;;;;;;;;16.50;62.40;;;12.27;100.00;95237.63;4969084;28;19932;-45
2022/09/24 04:51:07;;;;;;;;;;;16.50;62.50;;;12.29;100.00;95243.50;4991014;28;19992;-45
2022/09/24 04:53:49;;;;;;;;;;;16.50;62.60;;;12.29;100.00;95245.38;4992478;28;20011;-44
2022/09/24 04:56:18;;;;;;;;;;;16.50;62.60;;;12.27;100.00;95253.66;4977528;28;20004;-45
2022/09/24 04:58:50;;;;;;;;;;;16.50;62.60;;;12.28;100.00;95247.22;4991876;28;19914;-45
2022/09/24 05:01:19;;;;;;;;;;;16.50;62.70;;;12.30;100.00;95252.28;4977498;28;19909;-45
2022/09/24 05:03:45;;;;;;;;;;;16.50;62.70;;;12.29;100.00;95254.19;4991655;28;19909;-49
2022/09/24 05:06:12;;;;;;;;;;;16.50;62.70;;;12.31;100.00;95246.66;4974063;28;19909;-45
2022/09/24 05:08:43;;;;;;;;;;;16.50;62.80;;;12.32;100.00;95245.59;4999084;28;19909;-45
2022/09/24 05:11:12;;;;;;;;;;;16.50;62.80;;;12.32;100.00;95252.81;4993624;28;19921;-44
2022/09/24 05:13:38;;;;;;;;;;;16.50;62.80;;;12.32;100.00;95255.50;5000181;28;19920;-45
2022/09/24 05:16:12;;;;;;;;;;;16.50;62.80;;;12.29;100.00;95254.19;4985998;28;19925;-45
2022/09/24 05:18:38;;;;;;;;;;;16.50;62.80;;;12.30;100.00;95249.63;4983928;28;19917;-47
2022/09/24 05:21:09;;;;;;;;;;;16.50;62.90;;;12.27;100.00;95251.78;5010952;28;20311;-44
2022/09/24 05:23:35;;;;;;;;;;;16.50;62.90;;;12.28;100.00;95255.22;5003232;28;19910;-46
2022/09/24 05:28:48;;;;;;;;;;;16.50;62.90;;;12.27;100.00;95256.31;4977279;28;20024;-45
2022/09/24 05:31:19;;;;;;;;;;;16.50;63.00;;;12.27;100.00;95259.00;4990532;28;19917;-44
2022/09/24 05:33:45;;;;;;;;;;;16.50;63.00;;;12.29;100.00;95264.06;4973714;28;19916;-45
2022/09/24 05:36:11;;;;;;;;;;;16.50;63.10;;;12.30;100.00;95271.00;5000143;28;19909;-44
2022/09/24 05:38:39;;;;;;;;;;;16.50;63.20;;;12.32;100.00;95263.50;4977269;28;20364;-47
2022/09/24 05:41:05;;;;;;;;;;;16.60;63.20;;;12.33;100.00;95265.09;5001762;28;20000;-45
2022/09/24 05:43:31;;;;;;;;;;;16.60;63.20;;;12.34;100.00;95264.78;4990028;28;20001;-44
2022/09/24 05:46:03;;;;;;;;;;;16.60;63.30;;;12.37;100.00;95268.78;4957480;28;20360;-44
2022/09/24 05:48:29;;;;;;;;;;;16.60;63.30;;;12.39;100.00;95266.63;4990413;28;20538;-46
2022/09/24 05:50:55;;;;;;;;;;;16.60;63.30;;;12.40;100.00;95271.66;4991364;28;19914;-45
2022/09/24 05:53:22;;;;;;;;;;;16.60;63.30;;;12.41;100.00;95270.59;4976732;28;20417;-45
2022/09/24 05:55:48;;;;;;;;;;;16.70;63.50;;;12.43;100.00;95278.31;4991605;28;19909;-45
2022/09/24 05:58:14;;;;;;;;;;;16.60;63.40;;;12.43;100.00;95276.44;4993518;28;19963;-45
2022/09/24 06:00:44;;;;;;;;;;;16.60;63.40;;;12.43;100.00;95276.44;5008729;28;20347;-45
2022/09/24 06:03:18;;;;;;;;;;;16.70;63.40;;;12.39;100.00;95275.44;5000948;28;19913;-46
2022/09/24 06:05:55;;;;;;;;;;;16.70;63.40;;;12.39;100.00;95272.75;4996977;28;19956;-46
2022/09/24 06:08:21;;;;;;;;;;;16.70;63.50;;;12.40;100.00;95271.66;4994175;28;19909;-45
2022/09/24 06:10:48;;;;;;;;;;;16.70;63.50;;;12.44;100.00;95282.56;4961288;28;19917;-47
2022/09/24 06:13:18;;;;;;;;;;;16.70;63.50;;;12.45;100.00;95276.97;4994457;28;19916;-45
2022/09/24 06:15:44;;;;;;;;;;;16.70;63.50;;;12.42;100.00;95280.19;4976848;28;19922;-46
2022/09/24 06:18:11;;;;;;;;;;;16.70;63.50;;;12.42;100.00;95269.53;4985412;28;19909;-45
2022/09/24 06:20:39;;;;;;;;;;;16.80;63.60;;;12.45;100.00;95273.50;4971489;28;20360;-45
2022/09/24 06:23:14;;;;;;;;;;;16.80;63.50;;;12.48;100.00;95272.94;4937151;28;24912;-44
2022/09/24 06:25:40;;;;;;;;;;;16.80;63.50;;;12.48;100.00;95273.72;4984775;28;20302;-49
2022/09/24 06:28:05;;;;;;;;;;;16.90;63.50;;;12.48;100.00;95278.28;4961250;28;19916;-45
2022/09/24 06:30:37;;;;;;;;;;;16.90;63.50;;;12.50;100.00;95279.59;4976515;28;19914;-46
2022/09/24 06:33:11;;;;;;;;;;;16.90;63.50;;;12.53;100.00;95272.88;4971239;28;19935;-45
2022/09/24 06:35:40;;;;;;;;;;;17.00;63.40;;;12.57;100.00;95275.78;5013371;28;19955;-47
2022/09/24 06:38:10;;;;;;;;;;;17.00;63.40;;;12.60;100.00;95284.03;4959300;28;19910;-46
2022/09/24 06:40:36;;;;;;;;;;;17.10;63.50;;;12.62;100.00;95275.72;4994286;28;19909;-49
2022/09/24 06:43:02;;;;;;;;;;;17.10;63.50;;;12.59;100.00;95282.41;4996173;28;20372;-45
2022/09/24 06:45:28;;;;;;;;;;;17.10;63.40;;;12.64;100.00;95287.72;4975882;28;19916;-47
2022/09/24 06:47:56;;;;;;;;;;;17.10;63.30;;;12.63;100.00;95283.47;4960315;28;19910;-47
2022/09/24 06:50:25;;;;;;;;;;;17.20;63.40;;;12.65;100.00;95281.28;5004808;28;20346;-47
2022/09/24 06:52:51;;;;;;;;;;;17.20;63.40;;;12.65;100.00;95280.50;4993774;28;19913;-44
2022/09/24 06:55:18;;;;;;;;;;;17.20;63.30;;;12.66;100.00;95284.75;4975893;28;20008;-45
2022/09/24 06:57:44;;;;;;;;;;;17.20;63.30;;;12.71;100.00;95277.47;4960929;28;19914;-47
2022/09/24 07:00:12;;;;;;;;;;;17.30;63.20;;;12.74;100.00;95279.56;4993877;28;20012;-45
2022/09/24 07:02:38;;;;;;;;;;;17.40;63.20;;;12.76;100.00;95281.97;4997159;28;19949;-49
2022/09/24 07:05:06;;;;;;;;;;;17.40;63.10;;;12.82;100.00;95288.06;4995583;28;19933;-44
2022/09/24 07:07:35;;;;;;;;;;;17.50;63.00;;;12.85;100.00;95282.94;4986432;28;19909;-45
2022/09/24 07:10:06;;;;;;;;;;;17.50;63.00;;;12.85;100.00;95282.94;4993712;28;19924;-45
2022/09/24 07:12:35;;;;;;;;;;;17.50;62.90;;;12.90;100.00;95284.75;4989845;28;19955;-45
2022/09/24 07:15:01;;;;;;;;;;;17.50;63.00;;;12.90;100.00;95290.09;4994747;28;20260;-45
2022/09/24 07:17:33;;;;;;;;;;;17.50;63.00;;;12.88;100.00;95284.22;4997107;28;19909;-45
2022/09/24 07:19:58;;;;;;;;;;;17.50;63.00;;;12.92;100.00;95291.41;4986780;28;20380;-45
2022/09/24 07:22:30;;;;;;;;;;;17.50;63.00;;;12.94;100.00;95296.44;4980021;28;19960;-45
2022/09/24 07:25:02;;;;;;;;;;;17.50;63.10;;;12.96;100.00;95299.66;4998399;28;19910;-45
2022/09/24 07:27:28;;;;;;;;;;;17.50;63.20;;;12.99;100.00;95296.41;5009420;28;19916;-45
2022/09/24 07:29:56;;;;;;;;;;;17.50;63.20;;;12.99;100.00;95298.28;4984411;28;19910;-45
2022/09/24 07:32:22;;;;;;;;;;;17.50;63.20;;;13.00;100.00;95297.19;4974960;28;20003;-49
2022/09/24 07:34:48;;;;;;;;;;;17.50;63.20;;;12.96;100.00;95299.66;4993156;28;19909;-46
2022/09/24 07:37:14;;;;;;;;;;;17.50;63.10;;;12.98;100.00;95302.03;4996544;28;19920;-46
2022/09/24 07:39:44;;;;;;;;;;;17.50;63.10;;;12.98;100.00;95313.53;5013017;28;19909;-44
2022/09/24 07:42:10;;;;;;;;;;;17.60;63.10;;;12.97;100.00;95317.25;5007784;28;19910;-45
2022/09/24 07:44:41;;;;;;;;;;;17.60;63.00;;;12.97;100.00;95314.59;4995793;28;19916;-45
2022/09/24 07:47:07;;;;;;;;;;;17.60;63.00;;;12.97;100.00;95309.25;4962049;28;19910;-46
2022/09/24 07:49:37;;;;;;;;;;;17.60;62.90;;;13.02;100.00;95309.19;4982315;28;20288;-46
2022/09/24 07:52:03;;;;;;;;;;;17.70;63.00;;;13.06;100.00;95309.41;4976272;28;19913;-48
2022/09/24 07:54:30;;;;;;;;;;;17.70;62.90;;;13.07;100.00;95311.81;4974595;28;19920;-47
2022/09/24 07:57:00;;;;;;;;;;;17.70;62.90;;;13.13;100.00;95312.53;4975568;28;19910;-45
2022/09/24 07:59:29;;;;;;;;;;;17.80;62.90;;;13.20;100.00;95324.47;4991506;28;20384;-45
2022/09/24 08:01:57;;;;;;;;;;;17.90;62.80;;;13.29;100.00;95315.84;4992245;28;19916;-45
2022/09/24 08:04:23;;;;;;;;;;;18.10;62.70;;;13.35;100.00;95318.19;5006513;28;19909;-46
2022/09/24 08:06:49;;;;;;;;;;;18.20;62.50;;;13.47;100.00;95320.41;5008036;28;19924;-45
2022/09/24 08:09:15;;;;;;;;;;;18.40;62.50;;;13.55;99.46;95319.75;4992633;28;19917;-44
2022/09/24 08:11:48;;;;;;;;;;;18.40;62.40;;;13.61;98.87;95321.28;4991114;28;19917;-46
2022/09/24 08:14:14;;;;;;;;;;;18.50;62.40;;;13.67;98.89;95321.22;4989829;28;19921;-46
2022/09/24 08:16:49;;;;;;;;;;;18.50;62.30;;;13.64;98.09;95319.91;4967704;23;20300;-46
2022/09/24 08:19:15;;;;;;;;;;;18.50;62.30;;;13.66;97.43;95317.72;4963716;28;19961;-46
2022/09/24 08:21:42;;;;;;;;;;;18.60;62.30;;;13.68;97.36;95320.91;4969320;28;19909;-47
2022/09/24 08:24:08;;;;;;;;;;;18.50;62.10;;;13.70;97.41;95321.44;4969677;28;19964;-45
2022/09/24 08:26:33;;;;;;;;;;;18.50;62.10;;;13.74;97.38;95327.78;4969150;28;20364;-46
2022/09/24 08:28:59;;;;;;;;;;;18.50;62.10;;;13.77;97.39;95319.19;4977698;28;19956;-50
2022/09/24 08:31:26;;;;;;;;;;;18.60;62.20;;;13.78;97.33;95310.06;4974240;28;19924;-47
2022/09/24 08:33:52;;;;;;;;;;;18.60;62.10;;;13.82;96.93;95311.09;4970819;28;20000;-47
2022/09/24 08:36:17;;;;;;;;;;;18.70;62.00;;;13.87;97.08;95307.50;4956878;28;19989;-46
2022/09/24 08:38:43;;;;;;;;;;;18.80;61.90;;;13.79;95.66;95310.88;4989488;28;20020;-46
2022/09/24 08:41:22;;;;;;;;;;;18.90;61.80;;;13.93;96.14;95314.38;4988590;28;19914;-48
2022/09/24 08:44:11;;;;;;;;;;;19.00;61.60;;;14.00;95.13;95320.16;4972957;28;19916;-46
2022/09/24 08:49:45;;;;;;;;;;;19.20;61.40;;;14.10;93.61;95317.34;4985368;28;19916;-46
2022/09/24 08:52:30;;;;;;;;;;;19.30;61.20;;;14.18;93.90;95313.19;4988961;28;20506;-49
2022/09/24 08:55:06;;;;;;;;;;;19.40;61.10;;;14.24;94.27;95321.94;4990138;28;19914;-46
2022/09/24 08:58:18;;;;;;;;;;;19.40;61.10;;;14.31;93.33;95303.59;5005980;28;19921;-50
2022/09/24 09:01:31;;;;;;;;;;;19.50;61.00;;;14.38;94.42;95305.88;4958770;28;19913;-48
2022/09/24 09:04:19;;;;;;;;;;;19.50;61.00;;;14.41;93.37;95314.13;4990932;28;20392;-46
2022/09/24 09:07:24;;;;;;;;;;;19.60;61.00;;;14.34;92.60;95322.53;4990574;28;20335;-46
2022/09/24 09:09:57;;;;;;;;;;;19.50;60.90;;;14.37;93.54;95310.44;4991171;28;19936;-48
2022/09/24 09:12:52;;;;;;;;;;;19.50;61.80;;;14.35;92.49;95308.06;4991579;28;19918;-46
2022/09/24 09:15:27;;;;;;;;;;;19.40;60.90;;;14.36;92.08;95308.88;4961317;28;19922;-46
2022/09/24 09:18:17;;;;;;;;;;;19.40;60.90;;;14.39;91.64;95312.84;4971690;28;19910;-48
2022/09/24 09:20:51;;;;;;;;;;;19.40;60.90;;;14.39;92.02;95313.63;4970412;28;19913;-48
2022/09/24 09:23:31;;;;;;;;;;;19.50;60.90;;;14.42;92.12;95307.69;4968898;28;19909;-50
2022/09/24 09:25:58;;;;;;;;;;;19.50;60.80;;;14.48;91.92;95309.19;4955539;28;19909;-48
2022/09/24 09:28:33;;;;;;;;;;;19.50;60.70;;;14.53;91.51;95316.34;4986574;28;20008;-48
2022/09/24 09:31:50;;;;;;;;;;;19.60;60.70;;;14.56;91.74;95307.72;4985323;28;19961;-49
2022/09/24 09:34:30;;;;;;;;;;;19.60;60.60;;;14.57;90.46;95317.34;4957838;28;20269;-46
2022/09/24 09:37:45;;;;;;;;;;;19.60;60.50;;;14.61;89.88;95321.03;4972127;28;19917;-51
2022/09/24 09:40:32;;;;;;;;;;;19.60;60.50;;;14.64;90.61;95325.03;4990400;28;19916;-46
2022/09/24 09:43:08;;;;;;;;;;;19.50;60.50;;;14.66;90.80;95322.81;4975180;28;20360;-48
2022/09/24 09:46:19;;;;;;;;;;;19.50;60.70;;;14.65;91.19;95315.88;4974631;28;19914;-45
2022/09/24 09:49:00;;;;;;;;;;;19.50;60.80;;;14.59;90.47;95315.19;4974131;28;20004;-46
2022/09/24 09:51:37;;;;;;;;;;;19.40;60.80;;;14.45;90.90;95317.81;4973165;28;19913;-46
2022/09/24 09:54:04;;;;;;;;;;;19.30;60.80;;;14.41;91.29;95310.66;4970126;28;20292;-46
2022/09/24 09:56:42;;;;;;;;;;;19.20;60.70;;;14.39;91.07;95316.31;4970542;28;19936;-46
2022/09/24 09:59:21;;;;;;;;;;;19.10;60.80;;;14.36;91.95;95319.59;4972328;28;19917;-49
2022/09/24 10:01:55;;;;;;;;;;;19.10;60.90;;;14.37;91.08;95320.38;4970563;28;19917;-45
2022/09/24 10:04:42;;;;;;;;;;;19.00;60.80;;;14.33;91.98;95317.50;4968864;28;19910;-44
2022/09/24 10:07:09;;;;;;;;;;;19.00;60.90;;;14.34;92.76;95322.53;4982899;28;20011;-48
2022/09/24 10:09:43;;;;;;;;;;;19.00;61.10;;;14.34;93.43;95321.75;4971601;28;19967;-45
2022/09/24 10:12:15;;;;;;;;;;;18.90;61.20;;;14.34;93.82;95321.75;4986376;28;20011;-45
2022/09/24 10:14:42;;;;;;;;;;;18.90;61.30;;;14.29;93.65;95325.31;4969175;28;20404;-48
2022/09/24 10:17:19;;;;;;;;;;;18.90;61.40;;;14.24;93.56;95320.03;4991397;28;19963;-46
2022/09/24 10:19:49;;;;;;;;;;;18.90;61.30;;;14.26;94.34;95307.16;4972720;28;19909;-47
2022/09/24 10:22:26;;;;;;;;;;;19.00;61.20;;;14.30;93.34;95310.03;4973777;28;19909;-47
2022/09/24 10:24:56;;;;;;;;;;;19.10;61.10;;;14.33;92.79;95315.59;4956409;28;20224;-49
2022/09/24 10:27:36;;;;;;;;;;;19.20;61.00;;;14.41;92.49;95319.47;4992311;28;19953;-47
2022/09/24 10:30:32;;;;;;;;;;;19.20;60.90;;;14.39;92.58;95315.53;4959108;28;19916;-45
2022/09/24 10:33:02;;;;;;;;;;;19.20;60.80;;;14.39;92.59;95312.84;4991136;28;20408;-48
2022/09/24 10:35:37;;;;;;;;;;;19.20;60.80;;;14.36;91.36;95316.91;4975017;28;20004;-48
2022/09/24 10:38:23;;;;;;;;;;;19.20;60.80;;;14.46;91.72;95322.06;4973159;28;19910;-48
2022/09/24 10:40:50;;;;;;;;;;;19.20;60.90;;;14.48;91.57;95313.75;4980394;28;19910;-48
2022/09/24 10:43:21;;;;;;;;;;;19.10;61.00;;;14.49;91.25;95313.44;5007488;28;20011;-51
2022/09/24 10:46:02;;;;;;;;;;;19.20;61.00;;;14.52;91.56;95317.47;4993295;28;19984;-47
2022/09/24 10:49:03;;;;;;;;;;;19.20;61.00;;;14.55;91.68;95314.97;5004225;28;19910;-49
2022/09/24 10:52:25;;;;;;;;;;;19.30;61.00;;;14.58;92.20;95311.69;4941441;28;19914;-46
2022/09/24 10:55:40;;;;;;;;;;;19.40;61.00;;;14.65;92.09;95314.00;4991902;28;19940;-46
2022/09/24 10:58:55;;;;;;;;;;;19.50;61.00;;;14.78;93.67;95315.09;4993239;28;19960;-48
2022/09/24 11:01:37;;;;;;;;;;;19.60;60.80;;;14.76;89.99;95304.69;4978564;28;19910;-47
2022/09/24 11:05:14;;;;;;;;;;;19.90;60.60;;;14.84;91.08;95308.53;4993172;28;20368;-51
2022/09/24 11:08:07;;;;;;;;;;;20.00;60.20;;;14.89;89.79;95303.09;4980652;28;20425;-46
2022/09/24 11:10:51;;;;;;;;;;;20.20;60.00;;;14.93;89.25;95305.97;4993096;28;19909;-48
2022/09/24 11:14:03;;;;;;;;;;;20.30;60.00;;;14.96;87.06;95305.38;4988378;28;20265;-45
2022/09/24 11:17:02;;;;;;;;;;;20.30;59.90;;;15.10;88.99;95306.13;4969213;28;19928;-49
2022/09/24 11:19:59;;;;;;;;;;;20.30;59.80;;;15.08;86.01;95307.56;4966443;28;19921;-49
2022/09/24 11:23:00;;;;;;;;;;;20.40;59.70;;;15.07;86.73;95311.31;4970534;28;19929;-49
2022/09/24 11:26:01;;;;;;;;;;;20.50;59.50;;;15.21;87.74;95304.84;4968554;28;19914;-46
2022/09/24 11:28:57;;;;;;;;;;;20.60;59.40;;;15.45;87.83;95298.47;4948495;28;19910;-45
2022/09/24 11:32:11;;;;;;;;;;;20.80;59.20;;;15.49;86.77;95294.84;4970981;28;19914;-45
2022/09/24 11:35:15;;;;;;;;;;;21.00;59.10;;;15.60;86.96;95297.31;4968573;28;19964;-45
2022/09/24 11:37:48;;;;;;;;;;;21.10;59.10;;;15.56;85.45;95289.06;4933326;28;19909;-48
2022/09/24 11:40:41;;;;;;;;;;;21.20;58.90;;;15.36;84.62;95293.00;4969653;28;19913;-47
2022/09/24 11:43:31;;;;;;;;;;;21.10;58.60;;;15.48;85.12;95279.03;4954932;28;20292;-49
2022/09/24 11:46:16;;;;;;;;;;;21.20;58.60;;;15.66;84.90;95280.00;4972018;28;19910;-48
2022/09/24 11:49:04;;;;;;;;;;;21.30;58.60;;;15.79;83.82;95279.16;4969297;28;19937;-51
2022/09/24 11:51:51;;;;;;;;;;;21.60;58.50;;;15.97;85.17;95269.34;4970583;28;19914;-45
2022/09/24 11:54:54;;;;;;;;;;;21.90;58.30;;;16.10;82.17;95268.47;4970186;28;19928;-46
2022/09/24 11:58:19;;;;;;;;;;;22.10;58.10;;;16.29;81.42;95270.97;4955493;28;19909;-46
2022/09/24 12:01:41;;;;;;;;;;;22.40;57.90;;;16.32;79.11;95264.97;4968151;28;19921;-47
2022/09/24 12:04:51;;;;;;;;;;;22.40;57.70;;;16.31;78.20;95262.59;4949548;28;19996;-50